sensor_id;sensor_type;location;lat;lon;timestamp;pressure;altitude;pressure_sealevel;temperature;humidity
45441;BME280;31189;38.790;-77.084;2022-08-03T00:02:05;100936.37;;;34.71;33.55
45441;BME280;31189;38.790;-77.084;2022-08-03T00:04:32;100945.29;;;33.48;34.52
45441;BME280;31189;38.790;-77.084;2022-08-03T00:07:00;100942.10;;;34.34;34.10
45441;BME280;31189;38.790;-77.084;2022-08-03T00:09:27;100943.53;;;34.31;33.85
45441;BME280;31189;38.790;-77.084;2022-08-03T00:11:55;100944.49;;;34.09;34.23
45441;BME280;31189;38.790;-77.084;2022-08-03T00:14:22;100943.26;;;33.97;34.06
45441;BME280;31189;38.790;-77.084;2022-08-03T00:16:49;100946.39;;;34.47;34.03
45441;BME280;31189;38.790;-77.084;2022-08-03T00:19:17;100952.59;;;33.46;34.17
45441;BME280;31189;38.790;-77.084;2022-08-03T00:21:44;100954.63;;;34.30;34.27
45441;BME280;31189;38.790;-77.084;2022-08-03T00:24:12;100954.55;;;34.39;34.15
45441;BME280;31189;38.790;-77.084;2022-08-03T00:26:40;100954.82;;;34.48;33.97
45441;BME280;31189;38.790;-77.084;2022-08-03T00:29:08;100960.85;;;34.27;33.93
45441;BME280;31189;38.790;-77.084;2022-08-03T00:31:35;100959.80;;;34.50;34.01
45441;BME280;31189;38.790;-77.084;2022-08-03T00:34:03;100961.57;;;34.54;34.02
45441;BME280;31189;38.790;-77.084;2022-08-03T00:36:31;100963.36;;;34.37;34.23
45441;BME280;31189;38.790;-77.084;2022-08-03T00:38:59;100966.29;;;34.47;34.46
45441;BME280;31189;38.790;-77.084;2022-08-03T00:41:26;100968.47;;;34.26;35.12
45441;BME280;31189;38.790;-77.084;2022-08-03T00:43:54;100970.69;;;34.18;35.87
45441;BME280;31189;38.790;-77.084;2022-08-03T00:46:22;100976.98;;;33.99;36.34
45441;BME280;31189;38.790;-77.084;2022-08-03T00:48:50;100981.48;;;33.67;36.99
45441;BME280;31189;38.790;-77.084;2022-08-03T00:51:19;100979.97;;;33.20;37.93
45441;BME280;31189;38.790;-77.084;2022-08-03T00:53:49;100981.45;;;33.61;37.77
45441;BME280;31189;38.790;-77.084;2022-08-03T00:56:17;100980.83;;;32.98;38.11
45441;BME280;31189;38.790;-77.084;2022-08-03T00:58:46;100980.37;;;33.50;38.03
45441;BME280;31189;38.790;-77.084;2022-08-03T01:01:13;100985.47;;;31.69;42.29
45441;BME280;31189;38.790;-77.084;2022-08-03T01:03:42;100991.95;;;33.00;40.78
45441;BME280;31189;38.790;-77.084;2022-08-03T01:06:16;100999.62;;;32.79;41.05
45441;BME280;31189;38.790;-77.084;2022-08-03T01:08:51;101004.29;;;32.96;40.87
45441;BME280;31189;38.790;-77.084;2022-08-03T01:11:27;101012.29;;;32.25;40.32
45441;BME280;31189;38.790;-77.084;2022-08-03T01:14:05;101016.66;;;33.02;40.79
45441;BME280;31189;38.790;-77.084;2022-08-03T01:16:43;101020.63;;;32.86;41.91
45441;BME280;31189;38.790;-77.084;2022-08-03T01:19:25;101022.59;;;32.69;42.77
45441;BME280;31189;38.790;-77.084;2022-08-03T01:22:06;101028.11;;;32.26;43.56
45441;BME280;31189;38.790;-77.084;2022-08-03T01:24:46;101030.08;;;32.48;43.19
45441;BME280;31189;38.790;-77.084;2022-08-03T01:27:20;101036.14;;;32.42;43.87
45441;BME280;31189;38.790;-77.084;2022-08-03T01:29:58;101043.55;;;31.95;43.91
45441;BME280;31189;38.790;-77.084;2022-08-03T01:32:34;101048.74;;;32.17;44.40
45441;BME280;31189;38.790;-77.084;2022-08-03T01:35:08;101057.17;;;31.94;44.69
45441;BME280;31189;38.790;-77.084;2022-08-03T01:37:40;101064.13;;;32.07;44.63
45441;BME280;31189;38.790;-77.084;2022-08-03T01:40:11;101071.69;;;31.88;45.18
45441;BME280;31189;38.790;-77.084;2022-08-03T01:42:40;101079.09;;;31.79;45.77
45441;BME280;31189;38.790;-77.084;2022-08-03T01:45:12;101082.70;;;31.52;45.89
45441;BME280;31189;38.790;-77.084;2022-08-03T01:47:41;101081.78;;;31.78;46.06
45441;BME280;31189;38.790;-77.084;2022-08-03T01:50:13;101083.44;;;31.65;46.19
45441;BME280;31189;38.790;-77.084;2022-08-03T01:52:42;101087.67;;;31.65;46.25
45441;BME280;31189;38.790;-77.084;2022-08-03T01:55:11;101088.31;;;31.78;45.31
45441;BME280;31189;38.790;-77.084;2022-08-03T01:57:42;101088.07;;;31.04;46.06
45441;BME280;31189;38.790;-77.084;2022-08-03T02:00:13;101092.37;;;31.76;45.65
45441;BME280;31189;38.790;-77.084;2022-08-03T02:02:43;101093.93;;;31.38;46.13
45441;BME280;31189;38.790;-77.084;2022-08-03T02:05:14;101096.03;;;31.38;47.77
45441;BME280;31189;38.790;-77.084;2022-08-03T02:07:44;101096.81;;;31.69;46.11
45441;BME280;31189;38.790;-77.084;2022-08-03T02:10:15;101097.97;;;31.18;47.32
45441;BME280;31189;38.790;-77.084;2022-08-03T02:12:45;101095.14;;;31.19;48.02
45441;BME280;31189;38.790;-77.084;2022-08-03T02:15:16;101093.98;;;31.05;49.42
45441;BME280;31189;38.790;-77.084;2022-08-03T02:17:46;101102.15;;;31.14;48.33
45441;BME280;31189;38.790;-77.084;2022-08-03T02:20:16;101104.05;;;30.68;48.02
45441;BME280;31189;38.790;-77.084;2022-08-03T02:22:45;101104.34;;;30.55;48.56
45441;BME280;31189;38.790;-77.084;2022-08-03T02:25:15;101110.28;;;30.60;48.27
45441;BME280;31189;38.790;-77.084;2022-08-03T02:27:47;101110.04;;;30.93;47.89
45441;BME280;31189;38.790;-77.084;2022-08-03T02:30:16;101107.03;;;30.16;48.82
45441;BME280;31189;38.790;-77.084;2022-08-03T02:32:54;101109.28;;;30.88;49.08
45441;BME280;31189;38.790;-77.084;2022-08-03T02:35:25;101113.18;;;30.52;48.72
45441;BME280;31189;38.790;-77.084;2022-08-03T02:37:57;101116.72;;;30.88;48.59
45441;BME280;31189;38.790;-77.084;2022-08-03T02:40:28;101114.50;;;30.49;49.06
45441;BME280;31189;38.790;-77.084;2022-08-03T02:42:59;101111.31;;;30.09;50.47
45441;BME280;31189;38.790;-77.084;2022-08-03T02:45:32;101112.10;;;30.53;50.95
45441;BME280;31189;38.790;-77.084;2022-08-03T02:48:03;101113.20;;;30.65;50.48
45441;BME280;31189;38.790;-77.084;2022-08-03T02:50:33;101115.87;;;30.77;50.17
45441;BME280;31189;38.790;-77.084;2022-08-03T02:53:02;101121.68;;;31.02;49.15
45441;BME280;31189;38.790;-77.084;2022-08-03T02:55:32;101124.52;;;30.62;51.14
45441;BME280;31189;38.790;-77.084;2022-08-03T02:58:02;101125.22;;;30.87;50.98
45441;BME280;31189;38.790;-77.084;2022-08-03T03:00:32;101127.27;;;30.21;51.06
45441;BME280;31189;38.790;-77.084;2022-08-03T03:03:02;101131.71;;;30.27;50.89
45441;BME280;31189;38.790;-77.084;2022-08-03T03:05:31;101131.75;;;30.29;51.13
45441;BME280;31189;38.790;-77.084;2022-08-03T03:07:59;101131.93;;;29.69;51.11
45441;BME280;31189;38.790;-77.084;2022-08-03T03:10:27;101132.13;;;29.09;55.90
45441;BME280;31189;38.790;-77.084;2022-08-03T03:12:56;101130.97;;;30.10;53.25
45441;BME280;31189;38.790;-77.084;2022-08-03T03:15:26;101135.45;;;29.71;52.90
45441;BME280;31189;38.790;-77.084;2022-08-03T03:17:54;101137.50;;;30.00;53.13
45441;BME280;31189;38.790;-77.084;2022-08-03T03:20:23;101138.66;;;29.68;54.93
45441;BME280;31189;38.790;-77.084;2022-08-03T03:22:51;101140.35;;;30.32;53.59
45441;BME280;31189;38.790;-77.084;2022-08-03T03:25:20;101143.36;;;29.93;54.95
45441;BME280;31189;38.790;-77.084;2022-08-03T03:27:49;101143.51;;;30.00;53.59
45441;BME280;31189;38.790;-77.084;2022-08-03T03:30:17;101142.72;;;29.10;53.11
45441;BME280;31189;38.790;-77.084;2022-08-03T03:32:45;101139.63;;;29.06;52.61
45441;BME280;31189;38.790;-77.084;2022-08-03T03:35:14;101142.06;;;28.96;54.30
45441;BME280;31189;38.790;-77.084;2022-08-03T03:37:42;101145.22;;;29.23;53.69
45441;BME280;31189;38.790;-77.084;2022-08-03T03:40:11;101145.63;;;29.53;56.32
45441;BME280;31189;38.790;-77.084;2022-08-03T03:42:39;101148.83;;;29.44;54.06
45441;BME280;31189;38.790;-77.084;2022-08-03T03:45:08;101150.53;;;29.17;55.90
45441;BME280;31189;38.790;-77.084;2022-08-03T03:47:37;101149.89;;;29.36;53.33
45441;BME280;31189;38.790;-77.084;2022-08-03T03:50:06;101148.96;;;28.85;52.95
45441;BME280;31189;38.790;-77.084;2022-08-03T03:52:36;101152.53;;;29.34;52.26
45441;BME280;31189;38.790;-77.084;2022-08-03T03:55:05;101148.19;;;28.61;53.12
45441;BME280;31189;38.790;-77.084;2022-08-03T03:57:34;101151.73;;;28.65;53.45
45441;BME280;31189;38.790;-77.084;2022-08-03T04:00:02;101154.35;;;29.01;53.91
45441;BME280;31189;38.790;-77.084;2022-08-03T04:02:30;101158.23;;;29.76;52.97
45441;BME280;31189;38.790;-77.084;2022-08-03T04:04:59;101159.51;;;29.24;53.52
45441;BME280;31189;38.790;-77.084;2022-08-03T04:07:27;101162.53;;;29.11;53.33
45441;BME280;31189;38.790;-77.084;2022-08-03T04:10:02;101168.76;;;29.40;53.78
45441;BME280;31189;38.790;-77.084;2022-08-03T04:12:31;101171.81;;;29.57;53.04
45441;BME280;31189;38.790;-77.084;2022-08-03T04:14:59;101172.04;;;29.59;51.66
45441;BME280;31189;38.790;-77.084;2022-08-03T04:17:29;101174.07;;;30.10;51.03
45441;BME280;31189;38.790;-77.084;2022-08-03T04:19:58;101172.47;;;30.03;52.02
45441;BME280;31189;38.790;-77.084;2022-08-03T04:22:28;101176.26;;;29.78;53.16
45441;BME280;31189;38.790;-77.084;2022-08-03T04:25:00;101181.17;;;29.39;53.58
45441;BME280;31189;38.790;-77.084;2022-08-03T04:27:34;101183.48;;;28.96;55.19
45441;BME280;31189;38.790;-77.084;2022-08-03T04:30:04;101189.42;;;29.39;53.39
45441;BME280;31189;38.790;-77.084;2022-08-03T04:32:35;101188.67;;;29.04;52.98
45441;BME280;31189;38.790;-77.084;2022-08-03T04:35:04;101187.34;;;28.70;52.81
45441;BME280;31189;38.790;-77.084;2022-08-03T04:37:37;101187.14;;;28.69;53.01
45441;BME280;31189;38.790;-77.084;2022-08-03T04:40:09;101182.98;;;28.91;54.39
45441;BME280;31189;38.790;-77.084;2022-08-03T04:42:38;101186.65;;;29.49;53.99
45441;BME280;31189;38.790;-77.084;2022-08-03T04:45:08;101188.68;;;29.30;54.30
45441;BME280;31189;38.790;-77.084;2022-08-03T04:47:38;101189.16;;;29.86;53.92
45441;BME280;31189;38.790;-77.084;2022-08-03T04:50:07;101188.78;;;29.72;52.23
45441;BME280;31189;38.790;-77.084;2022-08-03T04:52:35;101187.88;;;29.59;52.20
45441;BME280;31189;38.790;-77.084;2022-08-03T04:55:04;101189.69;;;29.83;50.37
45441;BME280;31189;38.790;-77.084;2022-08-03T04:57:33;101190.78;;;29.73;49.57
45441;BME280;31189;38.790;-77.084;2022-08-03T05:00:02;101189.13;;;28.75;51.49
45441;BME280;31189;38.790;-77.084;2022-08-03T05:02:30;101192.55;;;29.32;48.56
45441;BME280;31189;38.790;-77.084;2022-08-03T05:04:58;101196.04;;;29.42;50.12
45441;BME280;31189;38.790;-77.084;2022-08-03T05:07:26;101201.82;;;29.69;50.07
45441;BME280;31189;38.790;-77.084;2022-08-03T05:09:55;101202.88;;;29.66;48.26
45441;BME280;31189;38.790;-77.084;2022-08-03T05:12:23;101204.57;;;29.59;47.45
45441;BME280;31189;38.790;-77.084;2022-08-03T05:14:51;101205.47;;;30.20;46.82
45441;BME280;31189;38.790;-77.084;2022-08-03T05:17:19;101201.63;;;29.10;49.48
45441;BME280;31189;38.790;-77.084;2022-08-03T05:19:47;101203.31;;;30.32;48.79
45441;BME280;31189;38.790;-77.084;2022-08-03T05:22:15;101200.08;;;30.11;50.26
45441;BME280;31189;38.790;-77.084;2022-08-03T05:24:43;101202.44;;;29.77;51.08
45441;BME280;31189;38.790;-77.084;2022-08-03T05:27:11;101202.92;;;29.90;51.46
45441;BME280;31189;38.790;-77.084;2022-08-03T05:29:39;101207.39;;;29.50;51.37
45441;BME280;31189;38.790;-77.084;2022-08-03T05:32:06;101207.20;;;29.02;54.06
45441;BME280;31189;38.790;-77.084;2022-08-03T05:34:34;101206.81;;;29.45;53.37
45441;BME280;31189;38.790;-77.084;2022-08-03T05:37:02;101204.13;;;30.07;51.55
45441;BME280;31189;38.790;-77.084;2022-08-03T05:39:30;101204.82;;;29.45;49.99
45441;BME280;31189;38.790;-77.084;2022-08-03T05:41:57;101202.83;;;29.83;48.13
45441;BME280;31189;38.790;-77.084;2022-08-03T05:44:26;101203.73;;;29.90;47.88
45441;BME280;31189;38.790;-77.084;2022-08-03T05:46:54;101199.10;;;29.04;49.01
45441;BME280;31189;38.790;-77.084;2022-08-03T05:49:22;101202.16;;;28.70;49.97
45441;BME280;31189;38.790;-77.084;2022-08-03T05:51:50;101200.50;;;29.17;50.51
45441;BME280;31189;38.790;-77.084;2022-08-03T05:54:18;101199.82;;;28.26;50.23
45441;BME280;31189;38.790;-77.084;2022-08-03T05:56:46;101197.85;;;28.54;50.41
45441;BME280;31189;38.790;-77.084;2022-08-03T05:59:14;101195.78;;;28.87;50.38
45441;BME280;31189;38.790;-77.084;2022-08-03T06:01:41;101191.99;;;28.86;51.95
45441;BME280;31189;38.790;-77.084;2022-08-03T06:04:10;101191.53;;;28.53;52.22
45441;BME280;31189;38.790;-77.084;2022-08-03T06:06:38;101195.62;;;28.73;51.27
45441;BME280;31189;38.790;-77.084;2022-08-03T06:09:05;101194.27;;;28.87;50.88
45441;BME280;31189;38.790;-77.084;2022-08-03T06:11:33;101191.56;;;28.93;51.14
45441;BME280;31189;38.790;-77.084;2022-08-03T06:14:02;101193.98;;;29.48;49.00
45441;BME280;31189;38.790;-77.084;2022-08-03T06:16:30;101195.24;;;29.65;47.99
45441;BME280;31189;38.790;-77.084;2022-08-03T06:18:58;101194.25;;;29.64;48.17
45441;BME280;31189;38.790;-77.084;2022-08-03T06:21:26;101193.44;;;29.78;47.75
45441;BME280;31189;38.790;-77.084;2022-08-03T06:23:55;101190.47;;;30.13;47.48
45441;BME280;31189;38.790;-77.084;2022-08-03T06:26:24;101190.87;;;29.58;47.41
45441;BME280;31189;38.790;-77.084;2022-08-03T06:28:53;101191.17;;;29.91;47.53
45441;BME280;31189;38.790;-77.084;2022-08-03T06:31:23;101193.59;;;29.99;47.08
45441;BME280;31189;38.790;-77.084;2022-08-03T06:33:51;101192.97;;;30.34;46.76
45441;BME280;31189;38.790;-77.084;2022-08-03T06:36:19;101197.49;;;30.29;47.36
45441;BME280;31189;38.790;-77.084;2022-08-03T06:38:47;101198.37;;;29.66;49.05
45441;BME280;31189;38.790;-77.084;2022-08-03T06:41:15;101202.49;;;29.23;49.84
45441;BME280;31189;38.790;-77.084;2022-08-03T06:43:43;101201.58;;;29.92;49.17
45441;BME280;31189;38.790;-77.084;2022-08-03T06:46:11;101200.50;;;29.88;49.62
45441;BME280;31189;38.790;-77.084;2022-08-03T06:48:39;101201.77;;;29.70;50.12
45441;BME280;31189;38.790;-77.084;2022-08-03T06:51:07;101205.04;;;30.04;48.85
45441;BME280;31189;38.790;-77.084;2022-08-03T06:53:36;101208.38;;;29.97;48.82
45441;BME280;31189;38.790;-77.084;2022-08-03T06:56:05;101207.99;;;29.24;49.41
45441;BME280;31189;38.790;-77.084;2022-08-03T06:58:33;101209.87;;;29.65;50.41
45441;BME280;31189;38.790;-77.084;2022-08-03T07:01:01;101210.31;;;29.50;50.00
45441;BME280;31189;38.790;-77.084;2022-08-03T07:03:30;101211.83;;;29.52;50.01
45441;BME280;31189;38.790;-77.084;2022-08-03T07:05:58;101213.32;;;29.89;49.80
45441;BME280;31189;38.790;-77.084;2022-08-03T07:08:26;101210.48;;;29.97;48.88
45441;BME280;31189;38.790;-77.084;2022-08-03T07:10:54;101212.56;;;29.86;48.37
45441;BME280;31189;38.790;-77.084;2022-08-03T07:13:21;101208.89;;;29.97;48.65
45441;BME280;31189;38.790;-77.084;2022-08-03T07:15:49;101207.46;;;29.70;48.58
45441;BME280;31189;38.790;-77.084;2022-08-03T07:18:16;101205.03;;;29.78;47.70
45441;BME280;31189;38.790;-77.084;2022-08-03T07:20:44;101205.45;;;29.94;47.58
45441;BME280;31189;38.790;-77.084;2022-08-03T07:23:18;101203.89;;;29.31;48.14
45441;BME280;31189;38.790;-77.084;2022-08-03T07:25:45;101209.79;;;29.69;49.58
45441;BME280;31189;38.790;-77.084;2022-08-03T07:28:13;101214.36;;;29.42;50.23
45441;BME280;31189;38.790;-77.084;2022-08-03T07:30:42;101213.88;;;29.36;51.15
45441;BME280;31189;38.790;-77.084;2022-08-03T07:33:10;101217.01;;;29.06;50.61
45441;BME280;31189;38.790;-77.084;2022-08-03T07:35:37;101221.39;;;29.05;50.83
45441;BME280;31189;38.790;-77.084;2022-08-03T07:38:06;101225.47;;;29.12;51.09
45441;BME280;31189;38.790;-77.084;2022-08-03T07:40:34;101224.37;;;28.57;53.61
45441;BME280;31189;38.790;-77.084;2022-08-03T07:43:02;101222.37;;;28.71;53.38
45441;BME280;31189;38.790;-77.084;2022-08-03T07:45:32;101225.25;;;28.75;52.52
45441;BME280;31189;38.790;-77.084;2022-08-03T07:47:59;101234.08;;;28.61;53.67
45441;BME280;31189;38.790;-77.084;2022-08-03T07:50:27;101240.66;;;28.53;53.01
45441;BME280;31189;38.790;-77.084;2022-08-03T07:52:55;101243.65;;;27.94;54.73
45441;BME280;31189;38.790;-77.084;2022-08-03T07:55:24;101249.62;;;27.93;55.04
45441;BME280;31189;38.790;-77.084;2022-08-03T07:58:01;101251.08;;;28.37;57.05
45441;BME280;31189;38.790;-77.084;2022-08-03T08:00:30;101257.31;;;28.37;53.22
45441;BME280;31189;38.790;-77.084;2022-08-03T08:02:58;101259.44;;;28.21;55.26
45441;BME280;31189;38.790;-77.084;2022-08-03T08:05:26;101258.56;;;28.14;55.54
45441;BME280;31189;38.790;-77.084;2022-08-03T08:07:54;101252.22;;;28.35;56.67
45441;BME280;31189;38.790;-77.084;2022-08-03T08:10:22;101252.57;;;27.81;56.86
45441;BME280;31189;38.790;-77.084;2022-08-03T08:12:50;101253.34;;;28.55;55.06
45441;BME280;31189;38.790;-77.084;2022-08-03T08:15:17;101258.86;;;27.33;59.92
45441;BME280;31189;38.790;-77.084;2022-08-03T08:17:47;101266.24;;;28.35;56.79
45441;BME280;31189;38.790;-77.084;2022-08-03T08:20:17;101271.50;;;28.56;55.75
45441;BME280;31189;38.790;-77.084;2022-08-03T08:22:45;101275.09;;;27.98;59.46
45441;BME280;31189;38.790;-77.084;2022-08-03T08:25:18;101273.08;;;28.20;57.60
45441;BME280;31189;38.790;-77.084;2022-08-03T08:27:48;101276.00;;;28.68;56.20
45441;BME280;31189;38.790;-77.084;2022-08-03T08:30:17;101275.72;;;28.06;57.49
45441;BME280;31189;38.790;-77.084;2022-08-03T08:32:46;101271.08;;;27.91;56.39
45441;BME280;31189;38.790;-77.084;2022-08-03T08:35:16;101267.10;;;27.97;56.50
45441;BME280;31189;38.790;-77.084;2022-08-03T08:37:44;101265.68;;;28.21;56.77
45441;BME280;31189;38.790;-77.084;2022-08-03T08:40:13;101266.63;;;28.39;57.39
45441;BME280;31189;38.790;-77.084;2022-08-03T08:42:42;101267.09;;;28.49;56.40
45441;BME280;31189;38.790;-77.084;2022-08-03T08:45:10;101266.78;;;28.31;56.41
45441;BME280;31189;38.790;-77.084;2022-08-03T08:47:42;101265.04;;;27.79;57.29
45441;BME280;31189;38.790;-77.084;2022-08-03T08:50:17;101266.74;;;27.95;57.69
45441;BME280;31189;38.790;-77.084;2022-08-03T08:52:47;101271.85;;;27.65;59.41
45441;BME280;31189;38.790;-77.084;2022-08-03T08:55:20;101268.75;;;27.40;61.32
45441;BME280;31189;38.790;-77.084;2022-08-03T08:57:51;101271.60;;;27.13;62.81
45441;BME280;31189;38.790;-77.084;2022-08-03T09:00:23;101277.72;;;26.86;63.10
45441;BME280;31189;38.790;-77.084;2022-08-03T09:02:50;101279.73;;;27.77;60.45
45441;BME280;31189;38.790;-77.084;2022-08-03T09:05:18;101287.31;;;26.29;66.81
45441;BME280;31189;38.790;-77.084;2022-08-03T09:07:47;101285.50;;;27.09;65.88
45441;BME280;31189;38.790;-77.084;2022-08-03T09:10:16;101285.34;;;26.93;63.52
45441;BME280;31189;38.790;-77.084;2022-08-03T09:12:46;101285.07;;;27.16;65.28
45441;BME280;31189;38.790;-77.084;2022-08-03T09:15:23;101283.46;;;27.42;64.34
45441;BME280;31189;38.790;-77.084;2022-08-03T09:17:53;101283.79;;;27.47;63.87
45441;BME280;31189;38.790;-77.084;2022-08-03T09:20:24;101286.76;;;27.61;60.38
45441;BME280;31189;38.790;-77.084;2022-08-03T09:22:55;101289.53;;;27.88;60.19
45441;BME280;31189;38.790;-77.084;2022-08-03T09:25:28;101287.99;;;28.05;59.12
45441;BME280;31189;38.790;-77.084;2022-08-03T09:28:06;101287.43;;;26.99;62.24
45441;BME280;31189;38.790;-77.084;2022-08-03T09:30:34;101292.85;;;27.80;58.82
45441;BME280;31189;38.790;-77.084;2022-08-03T09:33:05;101296.18;;;27.95;58.38
45441;BME280;31189;38.790;-77.084;2022-08-03T09:35:40;101297.01;;;27.57;60.13
45441;BME280;31189;38.790;-77.084;2022-08-03T09:38:10;101298.29;;;27.62;59.31
45441;BME280;31189;38.790;-77.084;2022-08-03T09:40:39;101306.09;;;27.30;61.61
45441;BME280;31189;38.790;-77.084;2022-08-03T09:43:07;101312.90;;;27.71;58.89
45441;BME280;31189;38.790;-77.084;2022-08-03T09:45:35;101317.36;;;27.80;58.22
45441;BME280;31189;38.790;-77.084;2022-08-03T09:48:35;101320.53;;;28.52;59.63
45441;BME280;31189;38.790;-77.084;2022-08-03T09:51:03;101319.92;;;27.56;60.51
45441;BME280;31189;38.790;-77.084;2022-08-03T09:53:31;101314.21;;;27.21;61.92
45441;BME280;31189;38.790;-77.084;2022-08-03T09:56:08;101311.98;;;27.65;61.72
45441;BME280;31189;38.790;-77.084;2022-08-03T09:58:44;101312.06;;;27.53;61.85
45441;BME280;31189;38.790;-77.084;2022-08-03T10:01:14;101314.50;;;26.78;63.21
45441;BME280;31189;38.790;-77.084;2022-08-03T10:03:41;101315.62;;;26.20;67.34
45441;BME280;31189;38.790;-77.084;2022-08-03T10:06:18;101323.45;;;26.44;70.06
45441;BME280;31189;38.790;-77.084;2022-08-03T10:08:46;101333.18;;;27.01;67.58
45441;BME280;31189;38.790;-77.084;2022-08-03T10:11:31;101341.13;;;27.07;65.80
45441;BME280;31189;38.790;-77.084;2022-08-03T10:13:59;101343.25;;;27.62;63.00
45441;BME280;31189;38.790;-77.084;2022-08-03T10:16:33;101349.34;;;27.09;63.68
45441;BME280;31189;38.790;-77.084;2022-08-03T10:19:03;101351.61;;;27.41;62.71
45441;BME280;31189;38.790;-77.084;2022-08-03T10:21:33;101354.48;;;27.21;63.17
45441;BME280;31189;38.790;-77.084;2022-08-03T10:24:05;101361.85;;;26.96;63.69
45441;BME280;31189;38.790;-77.084;2022-08-03T10:26:35;101366.06;;;27.37;63.91
45441;BME280;31189;38.790;-77.084;2022-08-03T10:29:05;101367.57;;;27.09;66.12
45441;BME280;31189;38.790;-77.084;2022-08-03T10:31:38;101363.52;;;27.05;64.45
45441;BME280;31189;38.790;-77.084;2022-08-03T10:34:12;101360.51;;;26.85;66.87
45441;BME280;31189;38.790;-77.084;2022-08-03T10:36:42;101370.02;;;27.17;66.24
45441;BME280;31189;38.790;-77.084;2022-08-03T10:39:11;101375.14;;;27.08;66.03
45441;BME280;31189;38.790;-77.084;2022-08-03T10:41:41;101384.45;;;27.21;65.29
45441;BME280;31189;38.790;-77.084;2022-08-03T10:44:13;101385.65;;;27.15;66.33
45441;BME280;31189;38.790;-77.084;2022-08-03T10:46:45;101393.65;;;26.46;68.25
45441;BME280;31189;38.790;-77.084;2022-08-03T10:49:14;101397.93;;;27.03;65.25
45441;BME280;31189;38.790;-77.084;2022-08-03T10:51:44;101402.98;;;26.81;66.59
45441;BME280;31189;38.790;-77.084;2022-08-03T10:54:46;101403.87;;;27.39;63.70
45441;BME280;31189;38.790;-77.084;2022-08-03T10:57:43;101402.67;;;25.79;70.08
45441;BME280;31189;38.790;-77.084;2022-08-03T11:00:12;101406.83;;;26.44;68.62
45441;BME280;31189;38.790;-77.084;2022-08-03T11:03:13;101415.98;;;27.42;68.05
45441;BME280;31189;38.790;-77.084;2022-08-03T11:05:42;101421.77;;;27.53;64.10
45441;BME280;31189;38.790;-77.084;2022-08-03T11:08:20;101423.42;;;27.71;63.77
45441;BME280;31189;38.790;-77.084;2022-08-03T11:10:48;101420.19;;;27.38;67.18
45441;BME280;31189;38.790;-77.084;2022-08-03T11:13:18;101418.72;;;27.75;63.76
45441;BME280;31189;38.790;-77.084;2022-08-03T11:15:48;101417.66;;;27.97;62.50
45441;BME280;31189;38.790;-77.084;2022-08-03T11:18:22;101421.28;;;27.85;64.08
45441;BME280;31189;38.790;-77.084;2022-08-03T11:20:52;101424.28;;;27.83;63.80
45441;BME280;31189;38.790;-77.084;2022-08-03T11:23:40;101428.67;;;27.87;63.83
45441;BME280;31189;38.790;-77.084;2022-08-03T11:26:12;101437.11;;;27.78;65.55
45441;BME280;31189;38.790;-77.084;2022-08-03T11:28:42;101441.18;;;27.80;64.40
45441;BME280;31189;38.790;-77.084;2022-08-03T11:31:46;101440.40;;;28.70;63.02
45441;BME280;31189;38.790;-77.084;2022-08-03T11:34:15;101436.73;;;28.05;63.16
45441;BME280;31189;38.790;-77.084;2022-08-03T11:37:25;101439.97;;;28.36;61.90
45441;BME280;31189;38.790;-77.084;2022-08-03T11:39:54;101448.89;;;28.49;60.36
45441;BME280;31189;38.790;-77.084;2022-08-03T11:42:54;101452.09;;;29.16;63.37
45441;BME280;31189;38.790;-77.084;2022-08-03T11:45:31;101454.90;;;27.87;60.49
45441;BME280;31189;38.790;-77.084;2022-08-03T11:48:15;101461.71;;;28.74;57.99
45441;BME280;31189;38.790;-77.084;2022-08-03T11:50:43;101462.62;;;29.26;55.72
45441;BME280;31189;38.790;-77.084;2022-08-03T11:53:16;101458.26;;;29.22;54.95
45441;BME280;31189;38.790;-77.084;2022-08-03T11:55:45;101455.22;;;29.63;54.72
45441;BME280;31189;38.790;-77.084;2022-08-03T11:58:17;101454.37;;;29.10;55.81
45441;BME280;31189;38.790;-77.084;2022-08-03T12:00:46;101454.49;;;29.40;56.65
45441;BME280;31189;38.790;-77.084;2022-08-03T12:03:16;101449.34;;;29.63;54.26
45441;BME280;31189;38.790;-77.084;2022-08-03T12:05:46;101447.37;;;30.02;52.87
45441;BME280;31189;38.790;-77.084;2022-08-03T12:08:17;101450.66;;;29.58;53.74
45441;BME280;31189;38.790;-77.084;2022-08-03T12:10:48;101445.58;;;30.30;52.68
45441;BME280;31189;38.790;-77.084;2022-08-03T12:13:17;101440.21;;;29.82;52.76
45441;BME280;31189;38.790;-77.084;2022-08-03T12:15:51;101436.46;;;29.98;52.92
45441;BME280;31189;38.790;-77.084;2022-08-03T12:18:20;101436.39;;;30.19;51.29
45441;BME280;31189;38.790;-77.084;2022-08-03T12:20:50;101439.95;;;30.41;50.27
45441;BME280;31189;38.790;-77.084;2022-08-03T12:23:18;101437.62;;;30.09;50.88
45441;BME280;31189;38.790;-77.084;2022-08-03T12:25:47;101437.69;;;30.69;48.66
45441;BME280;31189;38.790;-77.084;2022-08-03T12:28:17;101440.69;;;30.33;47.46
45441;BME280;31189;38.790;-77.084;2022-08-03T12:30:47;101443.33;;;30.61;46.72
45441;BME280;31189;38.790;-77.084;2022-08-03T12:33:22;101441.25;;;30.55;46.33
45441;BME280;31189;38.790;-77.084;2022-08-03T12:36:02;101437.81;;;31.05;46.50
45441;BME280;31189;38.790;-77.084;2022-08-03T12:38:32;101441.52;;;30.66;46.33
45441;BME280;31189;38.790;-77.084;2022-08-03T12:41:03;101444.68;;;30.83;45.29
45441;BME280;31189;38.790;-77.084;2022-08-03T12:43:31;101444.32;;;30.82;43.73
45441;BME280;31189;38.790;-77.084;2022-08-03T12:46:09;101441.86;;;31.46;42.24
45441;BME280;31189;38.790;-77.084;2022-08-03T12:48:56;101447.39;;;31.48;42.96